sensor_id;sensor_type;location;lat;lon;timestamp;temperature;humidity
5868;DHT22;2960;49.142;7.768;2024-03-29T00:01:11;7.10;61.70
5868;DHT22;2960;49.142;7.768;2024-03-29T00:03:37;7.10;61.80
5868;DHT22;2960;49.142;7.768;2024-03-29T00:06:03;7.10;62.60
5868;DHT22;2960;49.142;7.768;2024-03-29T00:08:30;7.10;61.80
5868;DHT22;2960;49.142;7.768;2024-03-29T00:10:56;7.10;61.90
5868;DHT22;2960;49.142;7.768;2024-03-29T00:13:24;7.10;61.80
5868;DHT22;2960;49.142;7.768;2024-03-29T00:15:50;7.10;61.90
5868;DHT22;2960;49.142;7.768;2024-03-29T00:18:17;7.10;61.90
5868;DHT22;2960;49.142;7.768;2024-03-29T00:20:43;7.10;62.00
5868;DHT22;2960;49.142;7.768;2024-03-29T00:23:09;7.10;62.00
5868;DHT22;2960;49.142;7.768;2024-03-29T00:25:35;7.10;62.00
5868;DHT22;2960;49.142;7.768;2024-03-29T00:28:02;7.10;62.00
5868;DHT22;2960;49.142;7.768;2024-03-29T00:30:30;7.10;62.10
5868;DHT22;2960;49.142;7.768;2024-03-29T00:32:56;7.10;62.20
5868;DHT22;2960;49.142;7.768;2024-03-29T00:35:23;7.10;62.30
5868;DHT22;2960;49.142;7.768;2024-03-29T00:37:49;7.10;62.30
5868;DHT22;2960;49.142;7.768;2024-03-29T00:40:16;7.10;62.40
5868;DHT22;2960;49.142;7.768;2024-03-29T00:42:42;7.10;62.30
5868;DHT22;2960;49.142;7.768;2024-03-29T00:45:08;7.10;62.40
5868;DHT22;2960;49.142;7.768;2024-03-29T00:47:36;7.10;62.40
5868;DHT22;2960;49.142;7.768;2024-03-29T00:50:03;7.10;62.40
5868;DHT22;2960;49.142;7.768;2024-03-29T00:52:29;7.10;62.50
5868;DHT22;2960;49.142;7.768;2024-03-29T00:54:55;7.10;62.60
5868;DHT22;2960;49.142;7.768;2024-03-29T00:57:21;7.20;62.70
5868;DHT22;2960;49.142;7.768;2024-03-29T00:59:47;7.10;62.70
5868;DHT22;2960;49.142;7.768;2024-03-29T01:02:14;7.10;62.70
5868;DHT22;2960;49.142;7.768;2024-03-29T01:04:41;7.10;62.80
5868;DHT22;2960;49.142;7.768;2024-03-29T01:07:07;7.10;63.10
5868;DHT22;2960;49.142;7.768;2024-03-29T01:09:34;7.10;62.90
5868;DHT22;2960;49.142;7.768;2024-03-29T01:12:00;7.10;63.70
5868;DHT22;2960;49.142;7.768;2024-03-29T01:14:26;7.20;63.00
5868;DHT22;2960;49.142;7.768;2024-03-29T01:16:52;7.20;63.10
5868;DHT22;2960;49.142;7.768;2024-03-29T01:19:18;7.20;63.10
5868;DHT22;2960;49.142;7.768;2024-03-29T01:21:46;7.20;63.20
5868;DHT22;2960;49.142;7.768;2024-03-29T01:24:12;7.20;63.20
5868;DHT22;2960;49.142;7.768;2024-03-29T01:26:38;7.20;63.20
5868;DHT22;2960;49.142;7.768;2024-03-29T01:29:05;7.20;63.30
5868;DHT22;2960;49.142;7.768;2024-03-29T01:31:31;7.20;63.30
5868;DHT22;2960;49.142;7.768;2024-03-29T01:33:57;7.20;63.30
5868;DHT22;2960;49.142;7.768;2024-03-29T01:36:24;7.20;63.30
5868;DHT22;2960;49.142;7.768;2024-03-29T01:38:51;7.10;63.30
5868;DHT22;2960;49.142;7.768;2024-03-29T01:41:18;7.10;63.50
5868;DHT22;2960;49.142;7.768;2024-03-29T01:43:44;7.10;63.50
5868;DHT22;2960;49.142;7.768;2024-03-29T01:46:11;7.10;63.60
5868;DHT22;2960;49.142;7.768;2024-03-29T01:48:38;7.10;63.60
5868;DHT22;2960;49.142;7.768;2024-03-29T01:51:05;7.10;63.70
5868;DHT22;2960;49.142;7.768;2024-03-29T01:53:32;7.10;63.80
5868;DHT22;2960;49.142;7.768;2024-03-29T01:56:04;7.10;63.90
5868;DHT22;2960;49.142;7.768;2024-03-29T01:58:32;7.10;63.90
5868;DHT22;2960;49.142;7.768;2024-03-29T02:01:00;7.20;64.00
5868;DHT22;2960;49.142;7.768;2024-03-29T02:03:27;7.10;63.90
5868;DHT22;2960;49.142;7.768;2024-03-29T02:05:55;7.20;64.10
5868;DHT22;2960;49.142;7.768;2024-03-29T02:08:23;7.20;64.20
5868;DHT22;2960;49.142;7.768;2024-03-29T02:10:50;7.20;64.20
5868;DHT22;2960;49.142;7.768;2024-03-29T02:13:19;7.20;64.20
5868;DHT22;2960;49.142;7.768;2024-03-29T02:15:46;7.20;64.20
5868;DHT22;2960;49.142;7.768;2024-03-29T02:18:13;7.20;64.20
5868;DHT22;2960;49.142;7.768;2024-03-29T02:20:40;7.20;64.20
5868;DHT22;2960;49.142;7.768;2024-03-29T02:23:11;7.30;64.30
5868;DHT22;2960;49.142;7.768;2024-03-29T02:25:40;7.30;64.30
5868;DHT22;2960;49.142;7.768;2024-03-29T02:28:07;7.30;64.30
5868;DHT22;2960;49.142;7.768;2024-03-29T02:30:34;7.30;64.40
5868;DHT22;2960;49.142;7.768;2024-03-29T02:33:01;7.30;64.40
5868;DHT22;2960;49.142;7.768;2024-03-29T02:35:29;7.30;64.60
5868;DHT22;2960;49.142;7.768;2024-03-29T02:37:57;7.30;64.70
5868;DHT22;2960;49.142;7.768;2024-03-29T02:40:24;7.30;64.90
5868;DHT22;2960;49.142;7.768;2024-03-29T02:42:52;7.30;64.80
5868;DHT22;2960;49.142;7.768;2024-03-29T02:45:19;7.30;64.90
5868;DHT22;2960;49.142;7.768;2024-03-29T02:47:46;7.30;64.90
5868;DHT22;2960;49.142;7.768;2024-03-29T02:50:15;7.40;65.00
5868;DHT22;2960;49.142;7.768;2024-03-29T02:52:41;7.40;64.90
5868;DHT22;2960;49.142;7.768;2024-03-29T02:55:09;7.40;64.90
5868;DHT22;2960;49.142;7.768;2024-03-29T02:57:36;7.40;65.00
5868;DHT22;2960;49.142;7.768;2024-03-29T03:00:05;7.40;65.00
5868;DHT22;2960;49.142;7.768;2024-03-29T03:02:33;7.40;65.10
5868;DHT22;2960;49.142;7.768;2024-03-29T03:05:05;7.40;65.20
5868;DHT22;2960;49.142;7.768;2024-03-29T03:07:33;7.50;65.30
5868;DHT22;2960;49.142;7.768;2024-03-29T03:10:18;7.50;65.30
5868;DHT22;2960;49.142;7.768;2024-03-29T03:13:03;7.50;65.50
5868;DHT22;2960;49.142;7.768;2024-03-29T03:15:31;7.50;65.60
5868;DHT22;2960;49.142;7.768;2024-03-29T03:17:59;7.50;65.60
5868;DHT22;2960;49.142;7.768;2024-03-29T03:20:26;7.50;65.60
5868;DHT22;2960;49.142;7.768;2024-03-29T03:22:56;7.50;65.70
5868;DHT22;2960;49.142;7.768;2024-03-29T03:25:27;7.50;65.80
5868;DHT22;2960;49.142;7.768;2024-03-29T03:27:53;7.50;65.80
5868;DHT22;2960;49.142;7.768;2024-03-29T03:30:20;7.50;65.80
5868;DHT22;2960;49.142;7.768;2024-03-29T03:32:49;7.50;65.90
5868;DHT22;2960;49.142;7.768;2024-03-29T03:35:16;7.50;65.90
5868;DHT22;2960;49.142;7.768;2024-03-29T03:37:42;7.60;66.10
5868;DHT22;2960;49.142;7.768;2024-03-29T03:40:09;7.60;66.20
5868;DHT22;2960;49.142;7.768;2024-03-29T03:42:36;7.60;66.20
5868;DHT22;2960;49.142;7.768;2024-03-29T03:45:04;7.60;66.20
5868;DHT22;2960;49.142;7.768;2024-03-29T03:47:30;7.60;66.30
5868;DHT22;2960;49.142;7.768;2024-03-29T03:49:59;7.60;66.40
5868;DHT22;2960;49.142;7.768;2024-03-29T03:52:25;7.60;66.50
5868;DHT22;2960;49.142;7.768;2024-03-29T03:54:52;7.60;66.50
5868;DHT22;2960;49.142;7.768;2024-03-29T03:57:18;7.60;66.60
5868;DHT22;2960;49.142;7.768;2024-03-29T03:59:45;7.60;66.70
5868;DHT22;2960;49.142;7.768;2024-03-29T04:02:11;7.60;67.60
5868;DHT22;2960;49.142;7.768;2024-03-29T04:04:38;7.70;67.00
5868;DHT22;2960;49.142;7.768;2024-03-29T04:07:06;7.60;67.00
5868;DHT22;2960;49.142;7.768;2024-03-29T04:09:33;7.60;67.10
5868;DHT22;2960;49.142;7.768;2024-03-29T04:11:59;7.60;67.20
5868;DHT22;2960;49.142;7.768;2024-03-29T04:14:26;7.60;67.20
5868;DHT22;2960;49.142;7.768;2024-03-29T04:16:52;7.60;67.30
5868;DHT22;2960;49.142;7.768;2024-03-29T04:19:19;7.70;67.50
5868;DHT22;2960;49.142;7.768;2024-03-29T04:21:45;7.70;68.30
5868;DHT22;2960;49.142;7.768;2024-03-29T04:24:14;7.70;67.60
5868;DHT22;2960;49.142;7.768;2024-03-29T04:26:40;7.70;67.70
5868;DHT22;2960;49.142;7.768;2024-03-29T04:29:08;7.70;67.80
5868;DHT22;2960;49.142;7.768;2024-03-29T04:31:34;7.70;68.70
5868;DHT22;2960;49.142;7.768;2024-03-29T04:34:02;7.70;68.00
5868;DHT22;2960;49.142;7.768;2024-03-29T04:36:28;7.70;68.10
5868;DHT22;2960;49.142;7.768;2024-03-29T04:38:55;7.70;68.10
5868;DHT22;2960;49.142;7.768;2024-03-29T04:41:23;7.80;68.20
5868;DHT22;2960;49.142;7.768;2024-03-29T04:43:50;7.70;68.20
5868;DHT22;2960;49.142;7.768;2024-03-29T04:46:17;7.70;68.20
5868;DHT22;2960;49.142;7.768;2024-03-29T04:48:44;7.70;68.30
5868;DHT22;2960;49.142;7.768;2024-03-29T04:51:12;7.70;68.30
5868;DHT22;2960;49.142;7.768;2024-03-29T04:53:39;7.80;68.50
5868;DHT22;2960;49.142;7.768;2024-03-29T04:56:06;7.80;68.60
5868;DHT22;2960;49.142;7.768;2024-03-29T04:58:35;7.80;68.60
5868;DHT22;2960;49.142;7.768;2024-03-29T05:01:02;7.80;69.40
5868;DHT22;2960;49.142;7.768;2024-03-29T05:03:29;7.80;68.70
5868;DHT22;2960;49.142;7.768;2024-03-29T05:05:56;7.80;68.70
5868;DHT22;2960;49.142;7.768;2024-03-29T05:08:24;7.80;68.80
5868;DHT22;2960;49.142;7.768;2024-03-29T05:10:51;7.80;68.80
5868;DHT22;2960;49.142;7.768;2024-03-29T05:13:19;7.80;68.80
5868;DHT22;2960;49.142;7.768;2024-03-29T05:15:48;7.80;68.90
5868;DHT22;2960;49.142;7.768;2024-03-29T05:18:18;7.80;69.00
5868;DHT22;2960;49.142;7.768;2024-03-29T05:20:45;7.80;69.00
5868;DHT22;2960;49.142;7.768;2024-03-29T05:23:16;7.80;69.10
5868;DHT22;2960;49.142;7.768;2024-03-29T05:25:43;7.80;69.10
5868;DHT22;2960;49.142;7.768;2024-03-29T05:28:10;7.80;69.10
5868;DHT22;2960;49.142;7.768;2024-03-29T05:30:37;7.90;69.20
5868;DHT22;2960;49.142;7.768;2024-03-29T05:33:06;7.90;69.20
5868;DHT22;2960;49.142;7.768;2024-03-29T05:35:33;7.90;69.20
5868;DHT22;2960;49.142;7.768;2024-03-29T05:38:03;7.90;69.20
5868;DHT22;2960;49.142;7.768;2024-03-29T05:40:30;7.90;69.30
5868;DHT22;2960;49.142;7.768;2024-03-29T05:42:57;7.90;69.20
5868;DHT22;2960;49.142;7.768;2024-03-29T05:45:26;7.90;69.20
5868;DHT22;2960;49.142;7.768;2024-03-29T05:47:55;7.90;69.20
5868;DHT22;2960;49.142;7.768;2024-03-29T05:50:25;8.10;69.40
5868;DHT22;2960;49.142;7.768;2024-03-29T05:52:52;7.90;69.20
5868;DHT22;2960;49.142;7.768;2024-03-29T05:55:20;8.00;69.40
5868;DHT22;2960;49.142;7.768;2024-03-29T05:57:47;8.00;69.40
5868;DHT22;2960;49.142;7.768;2024-03-29T06:00:15;8.10;69.40
5868;DHT22;2960;49.142;7.768;2024-03-29T06:02:43;8.00;69.40
5868;DHT22;2960;49.142;7.768;2024-03-29T06:05:11;8.00;69.30
5868;DHT22;2960;49.142;7.768;2024-03-29T06:07:40;8.10;69.40
5868;DHT22;2960;49.142;7.768;2024-03-29T06:10:07;8.00;69.60
5868;DHT22;2960;49.142;7.768;2024-03-29T06:12:36;8.10;69.40
5868;DHT22;2960;49.142;7.768;2024-03-29T06:15:05;8.10;69.40
5868;DHT22;2960;49.142;7.768;2024-03-29T06:17:50;8.10;69.50
5868;DHT22;2960;49.142;7.768;2024-03-29T06:20:17;8.10;69.50
5868;DHT22;2960;49.142;7.768;2024-03-29T06:22:46;8.10;69.60
5868;DHT22;2960;49.142;7.768;2024-03-29T06:25:13;8.10;69.70
5868;DHT22;2960;49.142;7.768;2024-03-29T06:27:41;8.20;69.80
5868;DHT22;2960;49.142;7.768;2024-03-29T06:30:09;8.20;69.90
5868;DHT22;2960;49.142;7.768;2024-03-29T06:32:37;8.20;70.00
5868;DHT22;2960;49.142;7.768;2024-03-29T06:35:04;8.20;70.00
5868;DHT22;2960;49.142;7.768;2024-03-29T06:37:32;8.20;70.00
5868;DHT22;2960;49.142;7.768;2024-03-29T06:40:00;8.20;70.00
5868;DHT22;2960;49.142;7.768;2024-03-29T06:42:28;8.20;70.00
5868;DHT22;2960;49.142;7.768;2024-03-29T06:44:56;8.20;70.10
5868;DHT22;2960;49.142;7.768;2024-03-29T06:47:24;8.20;70.10
5868;DHT22;2960;49.142;7.768;2024-03-29T06:49:51;8.30;70.20
5868;DHT22;2960;49.142;7.768;2024-03-29T06:52:18;8.30;70.30
5868;DHT22;2960;49.142;7.768;2024-03-29T06:54:46;8.30;70.30
5868;DHT22;2960;49.142;7.768;2024-03-29T06:57:15;8.30;70.30
5868;DHT22;2960;49.142;7.768;2024-03-29T06:59:46;8.40;70.40
5868;DHT22;2960;49.142;7.768;2024-03-29T07:02:13;8.40;70.30
5868;DHT22;2960;49.142;7.768;2024-03-29T07:04:40;8.40;71.10
5868;DHT22;2960;49.142;7.768;2024-03-29T07:07:07;8.40;71.10
5868;DHT22;2960;49.142;7.768;2024-03-29T07:09:35;8.50;70.50
5868;DHT22;2960;49.142;7.768;2024-03-29T07:12:03;8.50;70.40
5868;DHT22;2960;49.142;7.768;2024-03-29T07:14:31;8.50;70.50
5868;DHT22;2960;49.142;7.768;2024-03-29T07:16:59;8.50;70.50
5868;DHT22;2960;49.142;7.768;2024-03-29T07:19:26;8.60;70.50
5868;DHT22;2960;49.142;7.768;2024-03-29T07:21:53;8.60;70.50
5868;DHT22;2960;49.142;7.768;2024-03-29T07:24:20;8.60;70.50
5868;DHT22;2960;49.142;7.768;2024-03-29T07:26:47;8.70;70.70
5868;DHT22;2960;49.142;7.768;2024-03-29T07:29:14;8.70;70.70
5868;DHT22;2960;49.142;7.768;2024-03-29T07:31:43;8.70;70.70
5868;DHT22;2960;49.142;7.768;2024-03-29T07:34:10;8.70;70.70
5868;DHT22;2960;49.142;7.768;2024-03-29T07:36:36;8.80;70.80
5868;DHT22;2960;49.142;7.768;2024-03-29T07:39:04;8.80;70.80
5868;DHT22;2960;49.142;7.768;2024-03-29T07:41:32;8.80;70.80
5868;DHT22;2960;49.142;7.768;2024-03-29T07:43:59;8.80;70.90
5868;DHT22;2960;49.142;7.768;2024-03-29T07:46:31;8.90;71.00
5868;DHT22;2960;49.142;7.768;2024-03-29T07:49:01;8.90;71.00
5868;DHT22;2960;49.142;7.768;2024-03-29T07:51:28;9.00;71.90
5868;DHT22;2960;49.142;7.768;2024-03-29T07:53:55;8.90;71.10
5868;DHT22;2960;49.142;7.768;2024-03-29T07:56:22;9.00;71.20
5868;DHT22;2960;49.142;7.768;2024-03-29T07:58:51;9.00;71.20
5868;DHT22;2960;49.142;7.768;2024-03-29T08:01:19;9.00;71.30
5868;DHT22;2960;49.142;7.768;2024-03-29T08:03:47;9.00;71.50
5868;DHT22;2960;49.142;7.768;2024-03-29T08:06:17;9.00;71.50
5868;DHT22;2960;49.142;7.768;2024-03-29T08:08:45;9.10;71.60
5868;DHT22;2960;49.142;7.768;2024-03-29T08:11:12;9.10;71.60
5868;DHT22;2960;49.142;7.768;2024-03-29T08:13:40;9.10;71.70
5868;DHT22;2960;49.142;7.768;2024-03-29T08:16:07;9.10;71.70
5868;DHT22;2960;49.142;7.768;2024-03-29T08:18:36;9.10;71.70
5868;DHT22;2960;49.142;7.768;2024-03-29T08:21:04;9.20;71.90
5868;DHT22;2960;49.142;7.768;2024-03-29T08:23:39;9.20;71.90
5868;DHT22;2960;49.142;7.768;2024-03-29T08:26:06;9.20;71.90
5868;DHT22;2960;49.142;7.768;2024-03-29T08:28:33;9.30;72.00
5868;DHT22;2960;49.142;7.768;2024-03-29T08:31:04;9.30;72.00
5868;DHT22;2960;49.142;7.768;2024-03-29T08:33:33;9.30;72.00
5868;DHT22;2960;49.142;7.768;2024-03-29T08:36:03;9.30;71.90
5868;DHT22;2960;49.142;7.768;2024-03-29T08:38:31;9.40;72.10
5868;DHT22;2960;49.142;7.768;2024-03-29T08:40:59;9.40;72.10
5868;DHT22;2960;49.142;7.768;2024-03-29T08:43:26;9.40;72.10
5868;DHT22;2960;49.142;7.768;2024-03-29T08:45:53;9.50;72.20
5868;DHT22;2960;49.142;7.768;2024-03-29T08:48:21;9.50;72.10
5868;DHT22;2960;49.142;7.768;2024-03-29T08:50:49;9.50;72.20
5868;DHT22;2960;49.142;7.768;2024-03-29T08:53:16;9.50;72.20
5868;DHT22;2960;49.142;7.768;2024-03-29T08:55:46;9.60;72.30
5868;DHT22;2960;49.142;7.768;2024-03-29T08:58:16;9.60;72.40
5868;DHT22;2960;49.142;7.768;2024-03-29T09:00:52;9.60;72.30
5868;DHT22;2960;49.142;7.768;2024-03-29T09:03:20;9.70;72.50
5868;DHT22;2960;49.142;7.768;2024-03-29T09:05:47;9.70;72.50
5868;DHT22;2960;49.142;7.768;2024-03-29T09:08:15;9.70;73.30
5868;DHT22;2960;49.142;7.768;2024-03-29T09:10:42;9.70;72.60
5868;DHT22;2960;49.142;7.768;2024-03-29T09:13:09;9.80;72.70
5868;DHT22;2960;49.142;7.768;2024-03-29T09:15:38;9.80;72.70
5868;DHT22;2960;49.142;7.768;2024-03-29T09:18:05;9.80;72.80
5868;DHT22;2960;49.142;7.768;2024-03-29T09:20:43;9.90;72.80
5868;DHT22;2960;49.142;7.768;2024-03-29T09:23:11;9.90;72.90
5868;DHT22;2960;49.142;7.768;2024-03-29T09:25:42;9.90;72.90
5868;DHT22;2960;49.142;7.768;2024-03-29T09:28:09;10.00;71.80
5868;DHT22;2960;49.142;7.768;2024-03-29T09:30:38;10.00;71.80
5868;DHT22;2960;49.142;7.768;2024-03-29T09:33:05;10.00;71.90
5868;DHT22;2960;49.142;7.768;2024-03-29T09:35:34;10.00;71.90
5868;DHT22;2960;49.142;7.768;2024-03-29T09:38:02;10.00;71.90
5868;DHT22;2960;49.142;7.768;2024-03-29T09:40:29;10.10;72.70
5868;DHT22;2960;49.142;7.768;2024-03-29T09:43:00;10.20;72.20
5868;DHT22;2960;49.142;7.768;2024-03-29T09:45:31;10.10;72.20
5868;DHT22;2960;49.142;7.768;2024-03-29T09:48:04;10.10;72.20
5868;DHT22;2960;49.142;7.768;2024-03-29T09:50:33;10.10;72.70
5868;DHT22;2960;49.142;7.768;2024-03-29T09:53:02;10.10;72.80
5868;DHT22;2960;49.142;7.768;2024-03-29T09:55:29;10.10;72.90
5868;DHT22;2960;49.142;7.768;2024-03-29T09:57:57;10.10;73.00
5868;DHT22;2960;49.142;7.768;2024-03-29T10:00:27;10.10;73.20
5868;DHT22;2960;49.142;7.768;2024-03-29T10:02:56;10.10;73.30
5868;DHT22;2960;49.142;7.768;2024-03-29T10:05:25;10.10;73.50
5868;DHT22;2960;49.142;7.768;2024-03-29T10:07:54;10.10;73.60
5868;DHT22;2960;49.142;7.768;2024-03-29T10:10:22;10.20;74.50
5868;DHT22;2960;49.142;7.768;2024-03-29T10:12:49;10.20;73.80
5868;DHT22;2960;49.142;7.768;2024-03-29T10:15:16;10.30;73.90
5868;DHT22;2960;49.142;7.768;2024-03-29T10:17:47;10.30;74.70
5868;DHT22;2960;49.142;7.768;2024-03-29T10:20:16;10.30;74.00
5868;DHT22;2960;49.142;7.768;2024-03-29T10:22:46;10.40;74.20
5868;DHT22;2960;49.142;7.768;2024-03-29T10:25:13;10.50;74.30
5868;DHT22;2960;49.142;7.768;2024-03-29T10:27:40;10.50;74.30
5868;DHT22;2960;49.142;7.768;2024-03-29T10:30:09;10.60;74.50
5868;DHT22;2960;49.142;7.768;2024-03-29T10:32:42;10.60;74.50
5868;DHT22;2960;49.142;7.768;2024-03-29T10:35:10;10.70;74.50
5868;DHT22;2960;49.142;7.768;2024-03-29T10:37:37;10.70;74.50
5868;DHT22;2960;49.142;7.768;2024-03-29T10:40:08;10.70;74.50
5868;DHT22;2960;49.142;7.768;2024-03-29T10:42:37;10.70;74.50
5868;DHT22;2960;49.142;7.768;2024-03-29T10:45:06;10.80;75.30
5868;DHT22;2960;49.142;7.768;2024-03-29T10:47:34;10.80;74.60
5868;DHT22;2960;49.142;7.768;2024-03-29T10:50:02;10.80;75.40
5868;DHT22;2960;49.142;7.768;2024-03-29T10:52:31;10.80;74.60
5868;DHT22;2960;49.142;7.768;2024-03-29T10:54:58;10.80;74.70
5868;DHT22;2960;49.142;7.768;2024-03-29T10:57:27;10.90;74.80
5868;DHT22;2960;49.142;7.768;2024-03-29T11:00:02;10.90;75.00
5868;DHT22;2960;49.142;7.768;2024-03-29T11:02:35;10.90;75.10
5868;DHT22;2960;49.142;7.768;2024-03-29T11:05:09;10.90;75.10
5868;DHT22;2960;49.142;7.768;2024-03-29T11:07:40;10.90;75.10
5868;DHT22;2960;49.142;7.768;2024-03-29T11:10:13;10.90;75.20
5868;DHT22;2960;49.142;7.768;2024-03-29T11:12:50;11.00;75.30
5868;DHT22;2960;49.142;7.768;2024-03-29T11:15:29;11.00;75.40
5868;DHT22;2960;49.142;7.768;2024-03-29T11:17:57;11.00;75.40
5868;DHT22;2960;49.142;7.768;2024-03-29T11:20:26;11.00;75.40
5868;DHT22;2960;49.142;7.768;2024-03-29T11:23:05;11.00;75.40
5868;DHT22;2960;49.142;7.768;2024-03-29T11:25:42;11.00;75.40
5868;DHT22;2960;49.142;7.768;2024-03-29T11:28:22;11.10;75.50
5868;DHT22;2960;49.142;7.768;2024-03-29T11:30:50;11.10;75.60
5868;DHT22;2960;49.142;7.768;2024-03-29T11:33:29;11.10;75.50
5868;DHT22;2960;49.142;7.768;2024-03-29T11:35:58;11.10;75.60
5868;DHT22;2960;49.142;7.768;2024-03-29T11:38:34;11.10;75.70
5868;DHT22;2960;49.142;7.768;2024-03-29T11:41:05;11.10;75.70
5868;DHT22;2960;49.142;7.768;2024-03-29T11:43:35;11.10;75.80
5868;DHT22;2960;49.142;7.768;2024-03-29T11:46:05;11.10;76.60
5868;DHT22;2960;49.142;7.768;2024-03-29T11:48:33;11.10;75.90
5868;DHT22;2960;49.142;7.768;2024-03-29T11:51:02;11.20;76.00
5868;DHT22;2960;49.142;7.768;2024-03-29T11:53:31;11.20;76.10
5868;DHT22;2960;49.142;7.768;2024-03-29T11:55:59;11.20;76.10
5868;DHT22;2960;49.142;7.768;2024-03-29T11:58:28;11.20;76.20
5868;DHT22;2960;49.142;7.768;2024-03-29T12:00:58;11.20;76.20
5868;DHT22;2960;49.142;7.768;2024-03-29T12:03:28;11.20;76.30
5868;DHT22;2960;49.142;7.768;2024-03-29T12:05:56;11.30;76.50
5868;DHT22;2960;49.142;7.768;2024-03-29T12:08:29;11.30;76.50
5868;DHT22;2960;49.142;7.768;2024-03-29T12:10:57;11.30;76.60
5868;DHT22;2960;49.142;7.768;2024-03-29T12:13:25;11.30;76.60
5868;DHT22;2960;49.142;7.768;2024-03-29T12:15:52;11.40;76.80
5868;DHT22;2960;49.142;7.768;2024-03-29T12:18:22;11.40;76.80
5868;DHT22;2960;49.142;7.768;2024-03-29T12:20:51;11.40;76.80
5868;DHT22;2960;49.142;7.768;2024-03-29T12:23:20;11.40;76.80
5868;DHT22;2960;49.142;7.768;2024-03-29T12:25:49;11.50;77.00
5868;DHT22;2960;49.142;7.768;2024-03-29T12:28:17;11.50;77.00
5868;DHT22;2960;49.142;7.768;2024-03-29T12:30:45;11.50;77.00
5868;DHT22;2960;49.142;7.768;2024-03-29T12:33:14;11.50;77.10
5868;DHT22;2960;49.142;7.768;2024-03-29T12:35:45;11.50;77.10
5868;DHT22;2960;49.142;7.768;2024-03-29T12:38:15;11.60;77.30
5868;DHT22;2960;49.142;7.768;2024-03-29T12:40:44;11.60;77.30
5868;DHT22;2960;49.142;7.768;2024-03-29T12:43:14;11.60;77.40
5868;DHT22;2960;49.142;7.768;2024-03-29T12:45:43;11.60;77.30
5868;DHT22;2960;49.142;7.768;2024-03-29T12:48:10;11.60;77.40
5868;DHT22;2960;49.142;7.768;2024-03-29T12:50:40;11.70;77.70
5868;DHT22;2960;49.142;7.768;2024-03-29T12:53:11;11.70;77.60
5868;DHT22;2960;49.142;7.768;2024-03-29T12:55:39;11.70;77.70
5868;DHT22;2960;49.142;7.768;2024-03-29T12:58:10;11.70;77.80
5868;DHT22;2960;49.142;7.768;2024-03-29T13:00:38;11.70;77.80
5868;DHT22;2960;49.142;7.768;2024-03-29T13:03:06;11.80;78.10
5868;DHT22;2960;49.142;7.768;2024-03-29T13:05:35;11.80;78.10
5868;DHT22;2960;49.142;7.768;2024-03-29T13:08:06;11.80;78.30
5868;DHT22;2960;49.142;7.768;2024-03-29T13:10:36;11.80;78.30
5868;DHT22;2960;49.142;7.768;2024-03-29T13:13:04;11.90;78.40
5868;DHT22;2960;49.142;7.768;2024-03-29T13:15:33;11.90;78.50
5868;DHT22;2960;49.142;7.768;2024-03-29T13:18:02;11.90;78.50
5868;DHT22;2960;49.142;7.768;2024-03-29T13:20:31;11.90;78.60
5868;DHT22;2960;49.142;7.768;2024-03-29T13:23:00;11.90;78.60
5868;DHT22;2960;49.142;7.768;2024-03-29T13:25:28;12.00;78.80
5868;DHT22;2960;49.142;7.768;2024-03-29T13:27:55;12.00;78.80
5868;DHT22;2960;49.142;7.768;2024-03-29T13:30:25;12.00;78.90
5868;DHT22;2960;49.142;7.768;2024-03-29T13:32:53;12.00;78.90
5868;DHT22;2960;49.142;7.768;2024-03-29T13:35:21;12.00;79.00
5868;DHT22;2960;49.142;7.768;2024-03-29T13:37:49;12.00;79.00
5868;DHT22;2960;49.142;7.768;2024-03-29T13:40:21;12.00;79.20
5868;DHT22;2960;49.142;7.768;2024-03-29T13:42:51;12.00;79.20
5868;DHT22;2960;49.142;7.768;2024-03-29T13:45:18;12.00;79.20
5868;DHT22;2960;49.142;7.768;2024-03-29T13:47:46;12.00;79.20
5868;DHT22;2960;49.142;7.768;2024-03-29T13:50:15;12.00;79.30
5868;DHT22;2960;49.142;7.768;2024-03-29T13:52:43;12.10;79.60
5868;DHT22;2960;49.142;7.768;2024-03-29T13:55:10;12.00;79.50
5868;DHT22;2960;49.142;7.768;2024-03-29T13:57:37;12.10;79.70
5868;DHT22;2960;49.142;7.768;2024-03-29T14:00:08;12.10;79.80
5868;DHT22;2960;49.142;7.768;2024-03-29T14:02:40;12.10;79.90
5868;DHT22;2960;49.142;7.768;2024-03-29T14:05:07;12.10;80.00
5868;DHT22;2960;49.142;7.768;2024-03-29T14:07:34;12.10;80.00
5868;DHT22;2960;49.142;7.768;2024-03-29T14:10:01;12.10;80.10
5868;DHT22;2960;49.142;7.768;2024-03-29T14:12:32;12.20;80.20
5868;DHT22;2960;49.142;7.768;2024-03-29T14:14:59;12.20;80.40
5868;DHT22;2960;49.142;7.768;2024-03-29T14:17:28;12.20;80.40
5868;DHT22;2960;49.142;7.768;2024-03-29T14:19:55;12.20;80.50
5868;DHT22;2960;49.142;7.768;2024-03-29T14:22:26;12.30;80.70
5868;DHT22;2960;49.142;7.768;2024-03-29T14:24:55;12.30;80.80
5868;DHT22;2960;49.142;7.768;2024-03-29T14:27:22;12.40;81.10
5868;DHT22;2960;49.142;7.768;2024-03-29T14:29:50;12.40;81.00
5868;DHT22;2960;49.142;7.768;2024-03-29T14:32:17;12.40;81.00
5868;DHT22;2960;49.142;7.768;2024-03-29T14:34:45;12.40;81.10
5868;DHT22;2960;49.142;7.768;2024-03-29T14:37:13;12.40;81.10
5868;DHT22;2960;49.142;7.768;2024-03-29T14:39:41;12.40;81.20
5868;DHT22;2960;49.142;7.768;2024-03-29T14:42:10;12.50;81.40
5868;DHT22;2960;49.142;7.768;2024-03-29T14:44:47;12.50;81.40
5868;DHT22;2960;49.142;7.768;2024-03-29T14:47:14;12.50;81.40
5868;DHT22;2960;49.142;7.768;2024-03-29T14:49:43;12.50;81.40
5868;DHT22;2960;49.142;7.768;2024-03-29T14:52:14;12.50;81.40
5868;DHT22;2960;49.142;7.768;2024-03-29T14:54:41;12.50;81.50
5868;DHT22;2960;49.142;7.768;2024-03-29T14:57:08;12.50;81.50
5868;DHT22;2960;49.142;7.768;2024-03-29T14:59:35;12.50;81.60
5868;DHT22;2960;49.142;7.768;2024-03-29T15:02:03;12.50;81.60
5868;DHT22;2960;49.142;7.768;2024-03-29T15:04:30;12.60;81.80
5868;DHT22;2960;49.142;7.768;2024-03-29T15:06:57;12.60;81.90
5868;DHT22;2960;49.142;7.768;2024-03-29T15:09:26;12.60;82.00
5868;DHT22;2960;49.142;7.768;2024-03-29T15:11:53;12.70;82.20
5868;DHT22;2960;49.142;7.768;2024-03-29T15:14:20;12.70;82.20
5868;DHT22;2960;49.142;7.768;2024-03-29T15:16:47;12.70;82.40
5868;DHT22;2960;49.142;7.768;2024-03-29T15:19:19;12.80;82.60
5868;DHT22;2960;49.142;7.768;2024-03-29T15:21:48;12.80;82.60
5868;DHT22;2960;49.142;7.768;2024-03-29T15:24:16;12.80;82.70
5868;DHT22;2960;49.142;7.768;2024-03-29T15:26:44;12.90;82.80
5868;DHT22;2960;49.142;7.768;2024-03-29T15:29:10;12.90;82.90
5868;DHT22;2960;49.142;7.768;2024-03-29T15:31:40;13.00;83.00
5868;DHT22;2960;49.142;7.768;2024-03-29T15:34:07;13.00;83.00
5868;DHT22;2960;49.142;7.768;2024-03-29T15:36:35;13.00;83.10
5868;DHT22;2960;49.142;7.768;2024-03-29T15:39:03;13.10;83.30
5868;DHT22;2960;49.142;7.768;2024-03-29T15:41:34;13.10;83.30
5868;DHT22;2960;49.142;7.768;2024-03-29T15:44:03;13.20;83.40
5868;DHT22;2960;49.142;7.768;2024-03-29T15:46:30;13.20;83.30
5868;DHT22;2960;49.142;7.768;2024-03-29T15:48:58;13.10;83.20
5868;DHT22;2960;49.142;7.768;2024-03-29T15:51:26;13.30;83.40
5868;DHT22;2960;49.142;7.768;2024-03-29T15:53:53;13.30;83.30
5868;DHT22;2960;49.142;7.768;2024-03-29T15:56:26;13.40;83.40
5868;DHT22;2960;49.142;7.768;2024-03-29T15:58:54;13.40;83.40
5868;DHT22;2960;49.142;7.768;2024-03-29T16:01:23;13.40;83.40
5868;DHT22;2960;49.142;7.768;2024-03-29T16:03:51;13.40;83.40
5868;DHT22;2960;49.142;7.768;2024-03-29T16:06:18;13.50;83.50
5868;DHT22;2960;49.142;7.768;2024-03-29T16:08:46;13.50;83.40
5868;DHT22;2960;49.142;7.768;2024-03-29T16:11:13;13.50;83.40
5868;DHT22;2960;49.142;7.768;2024-03-29T16:13:41;13.50;83.30
5868;DHT22;2960;49.142;7.768;2024-03-29T16:16:10;13.50;83.30
5868;DHT22;2960;49.142;7.768;2024-03-29T16:18:38;13.60;83.50